Zeran (malta) — 9HHJ5 — position and weather

sailwx.info

Track history (hours):
 
Tides and Currents Weather Stations Pressure Air Temp Water Temp Dewpoint Dewpoint Depression Visibility Wind Speed Wind Dir Waves Ship Positions

Zeran (malta)

Last reported at 2016-May-05 16:04 UTC. Time now 2016-May-05 20:02 UTC.
Position N 40°29' E 014°33'.

Length 148 m; beam 24 m.

Type: Ship (hazmat cat B). MMSI: 249846000.

Date/timePositionNaut miles runAvg speedWind from/ knotsBaromVisibWave heightAir tempDewpointWater temp
2016-May-05 16:04N 40°29' E 014°33'713.2
2016-May-05 15:32N 40°24' E 014°27'  
2016-May-01 13:33N 43°19' E 009°27'1110.5
2016-May-01 12:33N 43°29' E 009°22'1010.2
2016-May-01 11:33N 43°39' E 009°17'1010.1
2016-May-01 10:33N 43°48' E 009°12'10 9.8
2016-May-01 09:33N 43°57' E 009°07'10 9.6
2016-May-01 08:33N 44°07' E 009°03'10 9.8
2016-May-01 07:33N 44°16' E 008°59'9 9.1
2016-May-01 06:33N 44°24' E 008°54'1 0.7
2016-May-01 05:30N 44°24' E 008°53'0 0.0
2016-May-01 04:29N 44°24' E 008°53'0 0.0
2016-May-01 03:32N 44°24' E 008°53'0 0.0
2016-May-01 02:32N 44°24' E 008°53'0 0.0
2016-May-01 01:32N 44°24' E 008°53'0 0.0
2016-May-01 00:26N 44°24' E 008°53'0 0.0
2016-Apr-30 23:26N 44°24' E 008°53'0 0.0
2016-Apr-30 22:32N 44°24' E 008°53'0 0.0
2016-Apr-30 21:26N 44°24' E 008°53'0 0.0
2016-Apr-30 20:26N 44°24' E 008°53'0 0.0
2016-Apr-30 19:32N 44°24' E 008°53'0 0.0
2016-Apr-30 18:32N 44°24' E 008°53'0 0.0
2016-Apr-30 17:32N 44°24' E 008°53'0 0.0
2016-Apr-30 16:29N 44°24' E 008°53'0 0.0
2016-Apr-30 15:32N 44°24' E 008°53'0 0.0
2016-Apr-30 14:32N 44°24' E 008°53'0 0.0
2016-Apr-30 13:29N 44°24' E 008°53'0 0.0
2016-Apr-30 12:32N 44°24' E 008°53'0 0.0
2016-Apr-30 11:32N 44°24' E 008°53'0 0.0
2016-Apr-30 10:32N 44°24' E 008°53'0 0.0
2016-Apr-30 09:29N 44°24' E 008°53'0 0.0
2016-Apr-30 08:23N 44°24' E 008°53'0 0.0
2016-Apr-30 07:32N 44°24' E 008°53'0 0.0
2016-Apr-30 06:26N 44°24' E 008°53'0 0.0
2016-Apr-30 05:32N 44°24' E 008°53'0 0.1
2016-Apr-30 04:34N 44°24' E 008°53'8 7.8
2016-Apr-30 03:33N 44°18' E 008°60'1413.9
2016-Apr-30 02:34N 44°05' E 009°07'1413.9
2016-Apr-30 01:33N 43°52' E 009°14'1413.8
2016-Apr-30 00:33N 43°39' E 009°21'1413.6
2016-Apr-29 23:33N 43°27' E 009°27'1313.2
2016-Apr-29 22:33N 43°14' E 009°34'1313.3
2016-Apr-29 21:33N 43°02' E 009°40'1312.8
2016-Apr-29 20:33N 42°52' E 009°51'1313.2
2016-Apr-29 19:33N 42°43' E 010°04'1312.9
2016-Apr-29 18:33N 42°34' E 010°17'1313.1
2016-Apr-29 17:33N 42°26' E 010°30'1313.1
2016-Apr-29 16:33N 42°17' E 010°44'1713.1
2016-Apr-29 15:17N 42°08' E 011°03'10313.0
2016-Apr-29 07:19N 41°09' E 012°56'1013.4
2016-Apr-29 06:33N 41°03' E 013°08'1413.3
2016-Apr-29 05:29N 40°55' E 013°23'1213.2
2016-Apr-29 04:33N 40°48' E 013°36'1313.4
2016-Apr-29 03:33N 40°40' E 013°50'1413.6
2016-Apr-29 02:33N 40°33' E 014°06'1313.2
2016-Apr-29 01:33N 40°32' E 014°23'9 0.7
2016-Apr-28 13:10N 40°29' E 014°34'914.3
2016-Apr-28 12:33N 40°22' E 014°26'1414.0
2016-Apr-28 11:33N 40°11' E 014°14'1413.8
2016-Apr-28 10:34N 40°01' E 014°02'1413.9
2016-Apr-28 09:31N 39°50' E 013°49'1613.9
2016-Apr-28 08:24N 39°39' E 013°36'1113.5
2016-Apr-28 07:33N 39°30' E 013°26'5613.3
2016-Apr-28 03:22N 38°48' E 012°39'1213.7
2016-Apr-28 02:31N 38°39' E 012°29'4113.8
2016-Apr-27 23:31N 38°09' E 011°54'1313.9
2016-Apr-27 22:33N 37°58' E 011°43'1413.7
2016-Apr-27 21:33N 37°48' E 011°31'1312.8
2016-Apr-27 20:33N 37°39' E 011°20'1312.8
2016-Apr-27 19:33N 37°30' E 011°09'1413.2
2016-Apr-27 18:28N 37°19' E 010°57'1713.4
2016-Apr-27 17:13N 37°07' E 010°43'913.1
2016-Apr-27 16:32N 37°00' E 010°35'  
Track history (hours):
 
Tides and Currents Weather Stations Pressure Air Temp Water Temp Dewpoint Dewpoint Depression Visibility Wind Speed Wind Dir Waves Ship Positions

Zeran (malta)

Last reported at 2016-May-05 16:04 UTC. Time now 2016-May-05 20:02 UTC.
Position N 40°29' E 014°33'.

Length 148 m; beam 24 m.

Type: Ship (hazmat cat B). MMSI: 249846000.

Date/timePositionNaut miles runAvg speedWind from/ knotsBaromVisibWave heightAir tempDewpointWater temp
2016-May-05 16:04N 40°29' E 014°33'713.2
2016-May-05 15:32N 40°24' E 014°27'  
2016-May-01 13:33N 43°19' E 009°27'1110.5
2016-May-01 12:33N 43°29' E 009°22'1010.2
2016-May-01 11:33N 43°39' E 009°17'1010.1
2016-May-01 10:33N 43°48' E 009°12'10 9.8
2016-May-01 09:33N 43°57' E 009°07'10 9.6
2016-May-01 08:33N 44°07' E 009°03'10 9.8
2016-May-01 07:33N 44°16' E 008°59'9 9.1
2016-May-01 06:33N 44°24' E 008°54'1 0.7
2016-May-01 05:30N 44°24' E 008°53'0 0.0
2016-May-01 04:29N 44°24' E 008°53'0 0.0
2016-May-01 03:32N 44°24' E 008°53'0 0.0
2016-May-01 02:32N 44°24' E 008°53'0 0.0
2016-May-01 01:32N 44°24' E 008°53'0 0.0
2016-May-01 00:26N 44°24' E 008°53'0 0.0
2016-Apr-30 23:26N 44°24' E 008°53'0 0.0
2016-Apr-30 22:32N 44°24' E 008°53'0 0.0
2016-Apr-30 21:26N 44°24' E 008°53'0 0.0
2016-Apr-30 20:26N 44°24' E 008°53'0 0.0
2016-Apr-30 19:32N 44°24' E 008°53'0 0.0
2016-Apr-30 18:32N 44°24' E 008°53'0 0.0
2016-Apr-30 17:32N 44°24' E 008°53'0 0.0
2016-Apr-30 16:29N 44°24' E 008°53'0 0.0
2016-Apr-30 15:32N 44°24' E 008°53'0 0.0
2016-Apr-30 14:32N 44°24' E 008°53'0 0.0
2016-Apr-30 13:29N 44°24' E 008°53'0 0.0
2016-Apr-30 12:32N 44°24' E 008°53'0 0.0
2016-Apr-30 11:32N 44°24' E 008°53'0 0.0
2016-Apr-30 10:32N 44°24' E 008°53'0 0.0
2016-Apr-30 09:29N 44°24' E 008°53'0 0.0
2016-Apr-30 08:23N 44°24' E 008°53'0 0.0
2016-Apr-30 07:32N 44°24' E 008°53'0 0.0
2016-Apr-30 06:26N 44°24' E 008°53'0 0.0
2016-Apr-30 05:32N 44°24' E 008°53'0 0.1
2016-Apr-30 04:34N 44°24' E 008°53'8 7.8
2016-Apr-30 03:33N 44°18' E 008°60'1413.9
2016-Apr-30 02:34N 44°05' E 009°07'1413.9
2016-Apr-30 01:33N 43°52' E 009°14'1413.8
2016-Apr-30 00:33N 43°39' E 009°21'1413.6
2016-Apr-29 23:33N 43°27' E 009°27'1313.2
2016-Apr-29 22:33N 43°14' E 009°34'1313.3
2016-Apr-29 21:33N 43°02' E 009°40'1312.8
2016-Apr-29 20:33N 42°52' E 009°51'1313.2
2016-Apr-29 19:33N 42°43' E 010°04'1312.9
2016-Apr-29 18:33N 42°34' E 010°17'1313.1
2016-Apr-29 17:33N 42°26' E 010°30'1313.1
2016-Apr-29 16:33N 42°17' E 010°44'1713.1
2016-Apr-29 15:17N 42°08' E 011°03'10313.0
2016-Apr-29 07:19N 41°09' E 012°56'1013.4
2016-Apr-29 06:33N 41°03' E 013°08'1413.3
2016-Apr-29 05:29N 40°55' E 013°23'1213.2
2016-Apr-29 04:33N 40°48' E 013°36'1313.4
2016-Apr-29 03:33N 40°40' E 013°50'1413.6
2016-Apr-29 02:33N 40°33' E 014°06'1313.2
2016-Apr-29 01:33N 40°32' E 014°23'9 0.7
2016-Apr-28 13:10N 40°29' E 014°34'914.3
2016-Apr-28 12:33N 40°22' E 014°26'1414.0
2016-Apr-28 11:33N 40°11' E 014°14'1413.8
2016-Apr-28 10:34N 40°01' E 014°02'1413.9
2016-Apr-28 09:31N 39°50' E 013°49'1613.9
2016-Apr-28 08:24N 39°39' E 013°36'1113.5
2016-Apr-28 07:33N 39°30' E 013°26'5613.3
2016-Apr-28 03:22N 38°48' E 012°39'1213.7
2016-Apr-28 02:31N 38°39' E 012°29'4113.8
2016-Apr-27 23:31N 38°09' E 011°54'1313.9
2016-Apr-27 22:33N 37°58' E 011°43'1413.7
2016-Apr-27 21:33N 37°48' E 011°31'1312.8
2016-Apr-27 20:33N 37°39' E 011°20'1312.8
2016-Apr-27 19:33N 37°30' E 011°09'1413.2
2016-Apr-27 18:28N 37°19' E 010°57'1713.4
2016-Apr-27 17:13N 37°07' E 010°43'913.1
2016-Apr-27 16:32N 37°00' E 010°35'  

Dump ship's entire track history